Time,TemperatureF,DewpointF,PressureIn,WindDirection,WindDirectionDegrees,WindSpeedMPH,WindSpeedGustMPH,Humidity,HourlyPrecipIn,Conditions,Clouds,dailyrainin,SolarRadiationWatts/m^2,SoftwareType,DateUTC
2013-04-21 00:00:00,49.5,29.1,30.21,North,355,1.0,4.0,45,0.00,,OVC,0.00,0.00,VWS V14.00,2013-04-21 04:00:00,
2013-04-21 00:01:00,49.4,29.0,30.21,North,355,0.0,4.0,45,0.00,,OVC,0.00,0.00,VWS V14.00,2013-04-21 04:01:00,
2013-04-21 00:02:00,49.4,29.0,30.21,North,355,0.0,4.0,45,0.00,,OVC,0.00,0.00,VWS V14.00,2013-04-21 04:02:00,
2013-04-21 00:07:00,49.2,28.8,30.21,NNE,23,2.0,8.0,45,0.00,,OVC,0.00,0.00,VWS V14.00,2013-04-21 04:07:00,
2013-04-21 00:12:00,49.1,29.2,30.22,NNW,332,0.0,8.0,46,0.00,,OVC,0.00,0.00,VWS V14.00,2013-04-21 04:12:00,
2013-04-21 00:15:00,49.1,29.2,30.22,NNE,26,4.0,8.0,46,0.00,,OVC,0.00,0.00,VWS V14.00,2013-04-21 04:15:00,
2013-04-21 00:17:00,49.0,29.7,30.22,NNE,13,0.0,4.0,47,0.00,,OVC,0.00,0.00,VWS V14.00,2013-04-21 04:17:00,
2013-04-21 00:22:00,48.8,29.5,30.23,NNW,344,2.0,5.0,47,0.00,,OVC,0.00,0.00,VWS V14.00,2013-04-21 04:22:00,
2013-04-21 00:27:00,48.7,29.4,30.23,North,355,2.0,5.0,47,0.00,,OVC,0.00,0.00,VWS V14.00,2013-04-21 04:27:00,
2013-04-21 00:30:00,48.6,29.3,30.23,North,355,2.0,5.0,47,0.00,,OVC,0.00,0.00,VWS V14.00,2013-04-21 04:30:00,
2013-04-21 00:32:00,48.6,29.3,30.23,NNE,13,0.0,6.0,47,0.00,,OVC,0.00,0.00,VWS V14.00,2013-04-21 04:32:00,
2013-04-21 00:37:00,48.4,29.1,30.23,NNE,18,4.0,6.0,47,0.00,,OVC,0.00,0.00,VWS V14.00,2013-04-21 04:37:00,
2013-04-21 00:42:00,48.3,29.5,30.24,North,355,0.0,6.0,48,0.00,,OVC,0.00,0.00,VWS V14.00,2013-04-21 04:42:00,
2013-04-21 00:45:00,48.3,29.5,30.24,North,355,1.0,6.0,48,0.00,,OVC,0.00,0.00,VWS V14.00,2013-04-21 04:45:00,
2013-04-21 00:47:00,48.2,28.9,30.24,ENE,73,3.0,3.0,47,0.00,,OVC,0.00,0.00,VWS V14.00,2013-04-21 04:47:00,
2013-04-21 00:53:00,48.2,28.9,30.24,NW,314,4.0,5.0,47,0.00,,OVC,0.00,0.00,VWS V14.00,2013-04-21 04:53:00,
2013-04-21 00:58:00,48.1,28.8,30.24,North,355,2.0,5.0,47,0.00,,OVC,0.00,0.00,VWS V14.00,2013-04-21 04:58:00,
2013-04-21 01:00:00,48.1,28.8,30.24,North,355,2.0,5.0,47,0.00,,OVC,0.00,0.00,VWS V14.00,2013-04-21 05:00:00,
2013-04-21 01:03:00,48.0,28.8,30.24,NW,319,1.0,5.0,47,0.00,,OVC,0.00,0.00,VWS V14.00,2013-04-21 05:03:00,
2013-04-21 01:08:00,47.8,29.1,30.24,NNE,19,1.0,5.0,48,0.00,,OVC,0.00,0.00,VWS V14.00,2013-04-21 05:08:00,
2013-04-21 01:13:00,47.7,29.0,30.24,NNE,16,0.0,0.0,48,0.00,,OVC,0.00,0.00,VWS V14.00,2013-04-21 05:13:00,
2013-04-21 01:15:00,47.7,29.0,30.24,NNE,16,0.0,5.0,48,0.00,,OVC,0.00,0.00,VWS V14.00,2013-04-21 05:15:00,
2013-04-21 01:18:00,47.6,28.9,30.25,North,360,2.0,3.0,48,0.00,,OVC,0.00,0.00,VWS V14.00,2013-04-21 05:18:00,
2013-04-21 01:23:00,47.4,28.7,30.24,North,355,1.0,4.0,48,0.00,,OVC,0.00,0.00,VWS V14.00,2013-04-21 05:23:00,
2013-04-21 01:28:00,47.3,28.6,30.25,North,351,1.0,2.0,48,0.00,,OVC,0.00,0.00,VWS V14.00,2013-04-21 05:28:00,
2013-04-21 01:30:00,47.3,28.6,30.25,North,351,0.0,4.0,48,0.00,,OVC,0.00,0.00,VWS V14.00,2013-04-21 05:30:00,
2013-04-21 01:33:00,47.2,28.5,30.25,North,351,0.0,2.0,48,0.00,,OVC,0.00,0.00,VWS V14.00,2013-04-21 05:33:00,
2013-04-21 01:38:00,47.0,28.3,30.25,NW,323,0.0,5.0,48,0.00,,OVC,0.00,0.00,VWS V14.00,2013-04-21 05:38:00,
2013-04-21 01:43:00,46.9,28.8,30.25,NE,38,2.0,2.0,49,0.00,,OVC,0.00,0.00,VWS V14.00,2013-04-21 05:43:00,
2013-04-21 01:45:00,47.0,28.3,30.25,NW,323,1.0,5.0,48,0.00,,OVC,0.00,0.00,VWS V14.00,2013-04-21 05:45:00,
2013-04-21 01:49:00,46.8,29.2,30.25,NNE,22,2.0,3.0,50,0.00,,OVC,0.00,0.00,VWS V14.00,2013-04-21 05:49:00,
2013-04-21 01:54:00,46.7,28.6,30.25,NNE,15,0.0,5.0,49,0.00,,OVC,0.00,0.00,VWS V14.00,2013-04-21 05:54:00,
2013-04-21 01:59:00,46.5,28.4,30.26,NNW,337,0.0,0.0,49,0.00,,OVC,0.00,0.00,VWS V14.00,2013-04-21 05:59:00,
2013-04-21 02:00:00,46.6,28.5,30.26,NNW,337,0.0,5.0,49,0.00,,OVC,0.00,0.00,VWS V14.00,2013-04-21 06:00:00,
2013-04-21 02:04:00,46.4,28.3,30.26,NNW,337,0.0,2.0,49,0.00,,OVC,0.00,0.00,VWS V14.00,2013-04-21 06:04:00,
2013-04-21 02:09:00,46.4,28.3,30.26,NNW,340,5.0,6.0,49,0.00,,OVC,0.00,0.00,VWS V14.00,2013-04-21 06:09:00,
2013-04-21 02:14:00,46.3,28.2,30.26,WNW,296,0.0,4.0,49,0.00,,OVC,0.00,0.00,VWS V14.00,2013-04-21 06:14:00,
2013-04-21 02:15:00,46.3,28.2,30.26,WNW,296,0.0,7.0,49,0.00,,OVC,0.00,0.00,VWS V14.00,2013-04-21 06:15:00,
2013-04-21 02:20:00,46.3,28.2,30.26,NNE,23,3.0,4.0,49,0.00,,OVC,0.00,0.00,VWS V14.00,2013-04-21 06:20:00,
2013-04-21 02:25:00,46.3,28.2,30.26,North,360,2.0,6.0,49,0.00,,OVC,0.00,0.00,VWS V14.00,2013-04-21 06:25:00,
2013-04-21 02:30:00,46.2,28.1,30.26,NNW,348,0.0,4.0,49,0.00,,OVC,0.00,0.00,VWS V14.00,2013-04-21 06:30:00,
2013-04-21 02:35:00,46.0,28.4,30.26,NNW,338,0.0,4.0,50,0.00,,OVC,0.00,0.00,VWS V14.00,2013-04-21 06:35:00,
2013-04-21 02:40:00,45.8,28.2,30.27,North,5,0.0,4.0,50,0.00,,OVC,0.00,0.00,VWS V14.00,2013-04-21 06:40:00,
2013-04-21 02:46:00,45.6,28.5,30.27,North,5,1.0,1.0,51,0.00,,OVC,0.00,0.00,VWS V14.00,2013-04-21 06:46:00,
2013-04-21 02:51:00,45.5,28.4,30.27,North,10,0.0,4.0,51,0.00,,OVC,0.00,0.00,VWS V14.00,2013-04-21 06:51:00,
2013-04-21 02:56:00,45.4,28.4,30.27,North,355,1.0,4.0,51,0.00,,OVC,0.00,0.00,VWS V14.00,2013-04-21 06:56:00,
2013-04-21 03:01:00,45.2,28.2,30.27,North,355,2.0,2.0,51,0.00,,OVC,0.00,0.00,VWS V14.00,2013-04-21 07:01:00,
2013-04-21 03:06:00,45.1,28.5,30.28,North,355,1.0,2.0,52,0.00,,OVC,0.00,0.00,VWS V14.00,2013-04-21 07:06:00,
2013-04-21 03:11:00,45.0,28.5,30.28,North,355,0.0,2.0,52,0.00,,OVC,0.00,0.00,VWS V14.00,2013-04-21 07:11:00,
2013-04-21 03:16:00,44.8,28.3,30.28,North,355,0.0,1.0,52,0.00,,OVC,0.00,0.00,VWS V14.00,2013-04-21 07:16:00,
2013-04-21 03:21:00,44.7,28.2,30.29,NNW,334,0.0,5.0,52,0.00,,OVC,0.00,0.00,VWS V14.00,2013-04-21 07:21:00,
2013-04-21 03:26:00,44.6,28.1,30.29,NE,49,6.0,6.0,52,0.00,,OVC,0.00,0.00,VWS V14.00,2013-04-21 07:26:00,
2013-04-21 03:32:00,44.7,28.2,30.29,NE,36,1.0,5.0,52,0.00,,OVC,0.00,0.00,VWS V14.00,2013-04-21 07:32:00,
2013-04-21 03:37:00,44.6,28.1,30.29,NE,36,1.0,5.0,52,0.00,,OVC,0.00,0.00,VWS V14.00,2013-04-21 07:37:00,
2013-04-21 03:42:00,44.6,28.1,30.29,North,355,0.0,5.0,52,0.00,,OVC,0.00,0.00,VWS V14.00,2013-04-21 07:42:00,
2013-04-21 03:47:00,44.4,29.3,30.30,North,355,1.0,1.0,55,0.00,,OVC,0.00,0.00,VWS V14.00,2013-04-21 07:47:00,
2013-04-21 03:52:00,44.2,29.1,30.30,NE,49,3.0,6.0,55,0.00,,OVC,0.00,0.00,VWS V14.00,2013-04-21 07:52:00,
2013-04-21 03:57:00,44.3,28.3,30.31,NNE,21,3.0,7.0,53,0.00,,OVC,0.00,0.00,VWS V14.00,2013-04-21 07:57:00,
2013-04-21 04:02:00,44.3,28.3,30.31,NNE,13,2.0,5.0,53,0.00,,OVC,0.00,0.00,VWS V14.00,2013-04-21 08:02:00,
2013-04-21 04:07:00,44.1,28.5,30.31,NE,39,1.0,5.0,54,0.00,,OVC,0.00,0.00,VWS V14.00,2013-04-21 08:07:00,
2013-04-21 04:12:00,44.0,28.0,30.31,NNE,28,1.0,7.0,53,0.00,,OVC,0.00,0.00,VWS V14.00,2013-04-21 08:12:00,
2013-04-21 04:17:00,44.0,28.0,30.32,NNE,17,4.0,8.0,53,0.00,,OVC,0.00,0.00,VWS V14.00,2013-04-21 08:17:00,
2013-04-21 04:23:00,43.9,27.9,30.32,NNE,20,4.0,8.0,53,0.00,,OVC,0.00,0.00,VWS V14.00,2013-04-21 08:23:00,
2013-04-21 04:28:00,43.7,27.7,30.32,North,5,3.0,8.0,53,0.00,,OVC,0.00,0.00,VWS V14.00,2013-04-21 08:28:00,
2013-04-21 04:33:00,43.6,27.6,30.33,North,360,1.0,8.0,53,0.00,,OVC,0.00,0.00,VWS V14.00,2013-04-21 08:33:00,
2013-04-21 04:38:00,43.4,27.9,30.33,NNE,28,3.0,8.0,54,0.00,,OVC,0.00,0.00,VWS V14.00,2013-04-21 08:38:00,
2013-04-21 04:43:00,43.3,27.8,30.33,North,9,1.0,2.0,54,0.00,,OVC,0.00,0.00,VWS V14.00,2013-04-21 08:43:00,
2013-04-21 04:48:00,43.1,28.5,30.33,North,5,1.0,3.0,56,0.00,,OVC,0.00,0.00,VWS V14.00,2013-04-21 08:48:00,
2013-04-21 04:53:00,42.9,27.9,30.33,NNE,29,2.0,3.0,55,0.00,,OVC,0.00,0.00,VWS V14.00,2013-04-21 08:53:00,
2013-04-21 04:58:00,42.7,27.7,30.34,NE,36,2.0,2.0,55,0.00,,OVC,0.00,0.00,VWS V14.00,2013-04-21 08:58:00,
2013-04-21 05:03:00,42.6,27.1,30.34,NNE,17,0.0,4.0,54,0.00,,OVC,0.00,0.00,VWS V14.00,2013-04-21 09:03:00,
2013-04-21 05:09:00,42.4,27.4,30.34,NNE,15,0.0,4.0,55,0.00,,OVC,0.00,0.00,VWS V14.00,2013-04-21 09:09:00,
2013-04-21 05:13:00,42.3,27.3,30.34,NNE,15,0.0,1.0,55,0.00,,OVC,0.00,0.00,VWS V14.00,2013-04-21 09:13:00,
2013-04-21 05:19:00,42.0,27.0,30.35,North,349,0.0,2.0,55,0.00,,OVC,0.00,0.00,VWS V14.00,2013-04-21 09:19:00,
2013-04-21 05:24:00,41.9,27.4,30.35,NNE,18,1.0,4.0,56,0.00,,OVC,0.00,0.00,VWS V14.00,2013-04-21 09:24:00,
2013-04-21 05:29:00,41.7,27.2,30.36,NNE,18,1.0,1.0,56,0.00,,OVC,0.00,0.00,VWS V14.00,2013-04-21 09:29:00,
2013-04-21 05:34:00,41.6,27.1,30.36,North,355,2.0,5.0,56,0.00,,OVC,0.00,0.00,VWS V14.00,2013-04-21 09:34:00,
2013-04-21 05:39:00,41.6,26.6,30.36,NNE,18,3.0,5.0,55,0.00,,OVC,0.00,0.00,VWS V14.00,2013-04-21 09:39:00,
2013-04-21 05:44:00,41.6,26.6,30.36,NNE,19,0.0,1.0,55,0.00,,OVC,0.00,0.00,VWS V14.00,2013-04-21 09:44:00,
2013-04-21 05:49:00,41.5,27.0,30.37,NNE,22,2.0,4.0,56,0.00,,OVC,0.00,0.00,VWS V14.00,2013-04-21 09:49:00,
2013-04-21 05:54:00,41.4,26.0,30.37,NNE,29,2.0,6.0,54,0.00,,OVC,0.00,0.00,VWS V14.00,2013-04-21 09:54:00,
2013-04-21 05:59:00,41.3,25.9,30.37,North,355,1.0,4.0,54,0.00,,OVC,0.00,0.00,VWS V14.00,2013-04-21 09:59:00,
2013-04-21 06:05:00,41.3,25.9,30.37,NE,41,0.0,4.0,54,0.00,,OVC,0.00,0.00,VWS V14.00,2013-04-21 10:05:00,
2013-04-21 06:10:00,41.2,26.7,30.37,NE,40,0.0,4.0,56,0.00,,OVC,0.00,0.00,VWS V14.00,2013-04-21 10:10:00,
2013-04-21 06:15:00,41.1,25.3,30.38,North,11,0.0,5.0,53,0.00,,OVC,0.00,0.00,VWS V14.00,2013-04-21 10:15:00,
2013-04-21 06:20:00,41.1,25.7,30.39,NE,41,0.0,5.0,54,0.00,,OVC,0.00,0.00,VWS V14.00,2013-04-21 10:20:00,
2013-04-21 06:25:00,41.0,25.6,30.39,NNE,12,0.0,5.0,54,0.00,,OVC,0.00,5.00,VWS V14.00,2013-04-21 10:25:00,
2013-04-21 06:30:00,40.9,25.1,30.40,North,355,2.0,8.0,53,0.00,,OVC,0.00,9.00,VWS V14.00,2013-04-21 10:30:00,
2013-04-21 06:35:00,40.9,25.5,30.40,NNE,22,3.0,8.0,54,0.00,,OVC,0.00,12.00,VWS V14.00,2013-04-21 10:35:00,
2013-04-21 06:40:00,40.9,25.1,30.40,North,11,3.0,8.0,53,0.00,,OVC,0.00,18.00,VWS V14.00,2013-04-21 10:40:00,
2013-04-21 06:45:00,40.9,24.6,30.40,ENE,66,2.0,4.0,52,0.00,,OVC,0.00,21.00,VWS V14.00,2013-04-21 10:45:00,
2013-04-21 06:50:00,40.9,24.6,30.41,NNE,17,0.0,4.0,52,0.00,,OVC,0.00,25.00,VWS V14.00,2013-04-21 10:50:00,
2013-04-21 06:55:00,40.9,24.6,30.41,North,355,2.0,4.0,52,0.00,,OVC,0.00,35.00,VWS V14.00,2013-04-21 10:55:00,
2013-04-21 07:01:00,41.0,24.3,30.41,NNE,15,1.0,8.0,51,0.00,,OVC,0.00,28.00,VWS V14.00,2013-04-21 11:01:00,
2013-04-21 07:06:00,41.1,24.4,30.41,North,350,2.0,8.0,51,0.00,,OVC,0.00,33.00,VWS V14.00,2013-04-21 11:06:00,
2013-04-21 07:11:00,41.2,24.5,30.42,NNE,32,1.0,8.0,51,0.00,,OVC,0.00,37.00,VWS V14.00,2013-04-21 11:11:00,
2013-04-21 07:16:00,41.4,25.1,30.42,NNE,21,1.0,3.0,52,0.00,,OVC,0.00,42.00,VWS V14.00,2013-04-21 11:16:00,
2013-04-21 07:21:00,41.6,24.8,30.42,NNE,22,3.0,4.0,51,0.00,,OVC,0.00,53.00,VWS V14.00,2013-04-21 11:21:00,
2013-04-21 07:26:00,41.8,24.1,30.43,NNE,16,3.0,8.0,49,0.00,,OVC,0.00,49.00,VWS V14.00,2013-04-21 11:26:00,
2013-04-21 07:31:00,42.0,24.7,30.43,North,9,3.0,3.0,50,0.00,,OVC,0.00,65.00,VWS V14.00,2013-04-21 11:31:00,
2013-04-21 07:36:00,42.2,23.9,30.44,NNE,22,4.0,6.0,48,0.00,,OVC,0.00,53.00,VWS V14.00,2013-04-21 11:36:00,
2013-04-21 07:41:00,42.4,24.1,30.44,NNE,13,3.0,8.0,48,0.00,,OVC,0.00,54.00,VWS V14.00,2013-04-21 11:41:00,
2013-04-21 07:46:00,42.4,23.6,30.44,North,5,5.0,9.0,47,0.00,,OVC,0.00,58.00,VWS V14.00,2013-04-21 11:46:00,
2013-04-21 07:51:00,42.5,24.7,30.45,NNE,30,4.0,10.0,49,0.00,,OVC,0.00,63.00,VWS V14.00,2013-04-21 11:51:00,
2013-04-21 07:57:00,42.6,24.3,30.44,NNW,331,2.0,10.0,48,0.00,,OVC,0.00,60.00,VWS V14.00,2013-04-21 11:57:00,
2013-04-21 08:02:00,42.7,24.9,30.44,NW,317,2.0,6.0,49,0.00,,OVC,0.00,63.00,VWS V14.00,2013-04-21 12:02:00,
2013-04-21 08:07:00,42.9,24.6,30.44,NNE,30,6.0,7.0,48,0.00,,OVC,0.00,97.00,VWS V14.00,2013-04-21 12:07:00,
2013-04-21 08:12:00,42.9,24.1,30.45,NE,52,6.0,11.0,47,0.00,,OVC,0.00,77.00,VWS V14.00,2013-04-21 12:12:00,
2013-04-21 08:17:00,42.8,24.5,30.45,NE,51,3.0,10.0,48,0.00,,OVC,0.00,91.00,VWS V14.00,2013-04-21 12:17:00,
2013-04-21 08:22:00,43.0,24.7,30.45,NE,38,4.0,10.0,48,0.00,,OVC,0.00,63.00,VWS V14.00,2013-04-21 12:22:00,
2013-04-21 08:27:00,43.2,23.8,30.45,North,11,4.0,10.0,46,0.00,,OVC,0.00,120.00,VWS V14.00,2013-04-21 12:27:00,
2013-04-21 08:32:00,43.2,23.8,30.46,ESE,104,2.0,8.0,46,0.00,,OVC,0.00,144.00,VWS V14.00,2013-04-21 12:32:00,
2013-04-21 08:37:00,43.3,24.4,30.46,ENE,59,4.0,8.0,47,0.00,,OVC,0.00,387.00,VWS V14.00,2013-04-21 12:37:00,
2013-04-21 08:42:00,43.6,24.7,30.46,North,355,6.0,8.0,47,0.00,,OVC,0.00,341.00,VWS V14.00,2013-04-21 12:42:00,
2013-04-21 08:48:00,43.7,25.3,30.46,North,351,4.0,6.0,48,0.00,,OVC,0.00,271.00,VWS V14.00,2013-04-21 12:48:00,
2013-04-21 08:53:00,43.8,24.9,30.46,ENE,59,0.0,10.0,47,0.00,,OVC,0.00,153.00,VWS V14.00,2013-04-21 12:53:00,
2013-04-21 08:58:00,44.0,24.6,30.46,NE,46,2.0,10.0,46,0.00,,OVC,0.00,230.00,VWS V14.00,2013-04-21 12:58:00,
2013-04-21 09:03:00,44.0,24.6,30.46,NE,56,3.0,8.0,46,0.00,,OVC,0.00,178.00,VWS V14.00,2013-04-21 13:03:00,
2013-04-21 09:08:00,44.0,24.0,30.46,North,9,3.0,8.0,45,0.00,,OVC,0.00,478.00,VWS V14.00,2013-04-21 13:08:00,
2013-04-21 09:13:00,44.2,24.8,30.46,NW,326,2.0,4.0,46,0.00,,OVC,0.00,378.00,VWS V14.00,2013-04-21 13:13:00,
2013-04-21 09:18:00,44.3,24.8,30.46,ENE,68,0.0,11.0,46,0.00,,OVC,0.00,415.00,VWS V14.00,2013-04-21 13:18:00,
2013-04-21 09:23:00,44.5,24.5,30.46,North,360,1.0,11.0,45,0.00,,OVC,0.00,199.00,VWS V14.00,2013-04-21 13:23:00,
2013-04-21 09:28:00,44.6,23.5,30.47,NNE,24,5.0,9.0,43,0.00,,OVC,0.00,510.00,VWS V14.00,2013-04-21 13:28:00,
2013-04-21 09:33:00,44.4,23.9,30.47,NNW,333,5.0,9.0,44,0.00,,OVC,0.00,568.00,VWS V14.00,2013-04-21 13:33:00,
2013-04-21 09:38:00,44.5,24.0,30.47,NNE,22,6.0,9.0,44,0.00,,OVC,0.00,635.00,VWS V14.00,2013-04-21 13:38:00,
2013-04-21 09:43:00,44.6,24.0,30.47,North,360,4.0,6.0,44,0.00,,OVC,0.00,642.00,VWS V14.00,2013-04-21 13:43:00,
2013-04-21 09:49:00,44.9,24.3,30.47,NNE,23,4.0,8.0,44,0.00,,OVC,0.00,621.00,VWS V14.00,2013-04-21 13:49:00,
2013-04-21 09:54:00,45.2,24.6,30.47,NE,36,9.0,11.0,44,0.00,,OVC,0.00,657.00,VWS V14.00,2013-04-21 13:54:00,
2013-04-21 09:59:00,45.1,24.0,30.47,NE,35,2.0,9.0,43,0.00,,OVC,0.00,710.00,VWS V14.00,2013-04-21 13:59:00,
2013-04-21 10:04:00,45.3,24.7,30.47,NNE,19,5.0,9.0,44,0.00,,OVC,0.00,717.00,VWS V14.00,2013-04-21 14:04:00,
2013-04-21 10:09:00,45.5,24.3,30.47,North,5,6.0,9.0,43,0.00,,OVC,0.00,729.00,VWS V14.00,2013-04-21 14:09:00,
2013-04-21 10:14:00,45.7,24.5,30.47,NE,36,8.0,8.0,43,0.00,,OVC,0.00,745.00,VWS V14.00,2013-04-21 14:14:00,
2013-04-21 10:19:00,45.9,24.7,30.48,NNE,25,6.0,8.0,43,0.00,,OVC,0.00,722.00,VWS V14.00,2013-04-21 14:19:00,
2013-04-21 10:24:00,45.9,24.1,30.48,NNE,26,0.0,8.0,42,0.00,,OVC,0.00,707.00,VWS V14.00,2013-04-21 14:24:00,
2013-04-21 10:29:00,45.9,24.1,30.48,NNW,340,4.0,8.0,42,0.00,,OVC,0.00,766.00,VWS V14.00,2013-04-21 14:29:00,
2013-04-21 10:34:00,46.0,23.6,30.48,North,5,2.0,8.0,41,0.00,,OVC,0.00,814.00,VWS V14.00,2013-04-21 14:34:00,
2013-04-21 10:39:00,46.0,23.6,30.49,NNE,32,6.0,9.0,41,0.00,,OVC,0.00,798.00,VWS V14.00,2013-04-21 14:39:00,
2013-04-21 10:45:00,46.1,24.3,30.48,ENE,58,3.0,5.0,42,0.00,,OVC,0.00,796.00,VWS V14.00,2013-04-21 14:45:00,
2013-04-21 10:50:00,46.4,25.7,30.48,North,5,0.0,6.0,44,0.00,,OVC,0.00,842.00,VWS V14.00,2013-04-21 14:50:00,
2013-04-21 10:55:00,46.7,26.0,30.48,NE,35,6.0,7.0,44,0.00,,OVC,0.00,784.00,VWS V14.00,2013-04-21 14:55:00,
2013-04-21 11:00:00,46.5,24.1,30.48,ENE,72,2.0,5.0,41,0.00,,OVC,0.00,874.00,VWS V14.00,2013-04-21 15:00:00,
2013-04-21 11:05:00,46.8,25.5,30.48,NNE,19,5.0,7.0,43,0.00,,OVC,0.00,937.00,VWS V14.00,2013-04-21 15:05:00,
2013-04-21 11:10:00,47.0,24.5,30.48,NE,44,0.0,7.0,41,0.00,,OVC,0.00,870.00,VWS V14.00,2013-04-21 15:10:00,
2013-04-21 11:15:00,47.0,25.7,30.48,NNE,26,4.0,7.0,43,0.00,,OVC,0.00,984.00,VWS V14.00,2013-04-21 15:15:00,
2013-04-21 11:20:00,47.6,25.1,30.48,NNE,13,4.0,9.0,41,0.00,,OVC,0.00,935.00,VWS V14.00,2013-04-21 15:20:00,
2013-04-21 11:25:00,47.4,24.3,30.48,North,10,4.0,9.0,40,0.00,,OVC,0.00,932.00,VWS V14.00,2013-04-21 15:25:00,
2013-04-21 11:31:00,47.6,25.7,30.48,WNW,298,0.0,1.0,42,0.00,,OVC,0.00,914.00,VWS V14.00,2013-04-21 15:31:00,
2013-04-21 11:36:00,48.0,25.4,30.48,NW,325,6.0,10.0,41,0.00,,OVC,0.00,935.00,VWS V14.00,2013-04-21 15:36:00,
2013-04-21 11:41:00,48.1,24.9,30.48,NW,304,1.0,10.0,40,0.00,,OVC,0.00,954.00,VWS V14.00,2013-04-21 15:41:00,
2013-04-21 11:46:00,48.1,25.5,30.48,NNW,327,4.0,5.0,41,0.00,,OVC,0.00,905.00,VWS V14.00,2013-04-21 15:46:00,
2013-04-21 11:51:00,48.2,25.0,30.48,NE,37,2.0,5.0,40,0.00,,OVC,0.00,956.00,VWS V14.00,2013-04-21 15:51:00,
2013-04-21 11:56:00,48.2,26.8,30.48,NE,34,3.0,7.0,43,0.00,,OVC,0.00,933.00,VWS V14.00,2013-04-21 15:56:00,
2013-04-21 12:01:00,48.6,25.4,30.48,NNE,22,1.0,2.0,40,0.00,,OVC,0.00,923.00,VWS V14.00,2013-04-21 16:01:00,
2013-04-21 12:06:00,49.1,25.8,30.47,East,88,1.0,2.0,40,0.00,,OVC,0.00,935.00,VWS V14.00,2013-04-21 16:06:00,
2013-04-21 12:11:00,49.3,26.6,30.47,NNE,30,5.0,8.0,41,0.00,,OVC,0.00,935.00,VWS V14.00,2013-04-21 16:11:00,
2013-04-21 12:16:00,49.3,24.8,30.47,NNW,336,2.0,6.0,38,0.00,,OVC,0.00,935.00,VWS V14.00,2013-04-21 16:16:00,
2013-04-21 12:21:00,49.4,26.1,30.47,NNE,32,4.0,6.0,40,0.00,,OVC,0.00,970.00,VWS V14.00,2013-04-21 16:21:00,
2013-04-21 12:27:00,49.7,27.0,30.46,East,90,1.0,8.0,41,0.00,,OVC,0.00,998.00,VWS V14.00,2013-04-21 16:27:00,
2013-04-21 12:32:00,50.1,26.7,30.46,NNE,15,0.0,5.0,40,0.00,,OVC,0.00,1011.00,VWS V14.00,2013-04-21 16:32:00,
2013-04-21 12:37:00,50.3,26.3,30.46,WNW,286,6.0,8.0,39,0.00,,OVC,0.00,1009.00,VWS V14.00,2013-04-21 16:37:00,
2013-04-21 12:42:00,50.2,25.0,30.46,ENE,61,2.0,9.0,37,0.00,,OVC,0.00,1020.00,VWS V14.00,2013-04-21 16:42:00,
2013-04-21 12:47:00,50.3,25.7,30.46,North,5,1.0,6.0,38,0.00,,OVC,0.00,1011.00,VWS V14.00,2013-04-21 16:47:00,
2013-04-21 12:52:00,50.2,24.3,30.46,NW,313,1.0,6.0,36,0.00,,OVC,0.00,953.00,VWS V14.00,2013-04-21 16:52:00,
2013-04-21 12:57:00,50.6,25.3,30.45,North,355,1.0,6.0,37,0.00,,OVC,0.00,1007.00,VWS V14.00,2013-04-21 16:57:00,
2013-04-21 13:02:00,50.8,26.1,30.45,NE,56,5.0,7.0,38,0.00,,OVC,0.00,1007.00,VWS V14.00,2013-04-21 17:02:00,
2013-04-21 13:07:00,50.5,25.9,30.45,North,5,1.0,8.0,38,0.00,,OVC,0.00,1004.00,VWS V14.00,2013-04-21 17:07:00,
2013-04-21 13:13:00,50.6,24.6,30.45,NE,38,4.0,9.0,36,0.00,,OVC,0.00,1000.00,VWS V14.00,2013-04-21 17:13:00,
2013-04-21 13:18:00,50.4,24.5,30.45,NW,316,4.0,6.0,36,0.00,,OVC,0.00,1009.00,VWS V14.00,2013-04-21 17:18:00,
2013-04-21 13:23:00,50.5,25.2,30.45,NE,45,2.0,9.0,37,0.00,,OVC,0.00,1004.00,VWS V14.00,2013-04-21 17:23:00,
2013-04-21 13:28:00,51.2,25.8,30.45,NW,321,5.0,5.0,37,0.00,,OVC,0.00,893.00,VWS V14.00,2013-04-21 17:28:00,
2013-04-21 13:33:00,51.7,26.9,30.45,NNE,22,4.0,5.0,38,0.00,,OVC,0.00,960.00,VWS V14.00,2013-04-21 17:33:00,
2013-04-21 13:38:00,52.1,25.3,30.44,WNW,296,4.0,8.0,35,0.00,,OVC,0.00,993.00,VWS V14.00,2013-04-21 17:38:00,
2013-04-21 13:43:00,52.1,25.3,30.44,North,11,3.0,6.0,35,0.00,,OVC,0.00,798.00,VWS V14.00,2013-04-21 17:43:00,
2013-04-21 13:48:00,51.9,24.4,30.44,North,350,2.0,7.0,34,0.00,,OVC,0.00,932.00,VWS V14.00,2013-04-21 17:48:00,
2013-04-21 13:53:00,51.7,24.3,30.44,North,5,4.0,10.0,34,0.00,,OVC,0.00,919.00,VWS V14.00,2013-04-21 17:53:00,
2013-04-21 13:58:00,51.6,25.5,30.44,East,92,0.0,0.0,36,0.00,,OVC,0.00,984.00,VWS V14.00,2013-04-21 17:58:00,
2013-04-21 14:04:00,52.7,25.8,30.44,South,190,0.0,5.0,35,0.00,,OVC,0.00,935.00,VWS V14.00,2013-04-21 18:04:00,
2013-04-21 14:09:00,53.6,26.6,30.44,NNE,32,4.0,5.0,35,0.00,,OVC,0.00,946.00,VWS V14.00,2013-04-21 18:09:00,
2013-04-21 14:14:00,53.3,26.4,30.44,ESE,103,1.0,1.0,35,0.00,,OVC,0.00,933.00,VWS V14.00,2013-04-21 18:14:00,
2013-04-21 14:19:00,53.6,26.6,30.43,East,98,4.0,6.0,35,0.00,,OVC,0.00,940.00,VWS V14.00,2013-04-21 18:19:00,
2013-04-21 14:24:00,53.4,28.5,30.43,NE,38,4.0,7.0,38,0.00,,OVC,0.00,851.00,VWS V14.00,2013-04-21 18:24:00,
2013-04-21 14:29:00,52.9,28.0,30.43,East,84,1.0,3.0,38,0.00,,OVC,0.00,928.00,VWS V14.00,2013-04-21 18:29:00,
2013-04-21 14:34:00,52.9,29.9,30.43,North,10,0.0,6.0,41,0.00,,OVC,0.00,872.00,VWS V14.00,2013-04-21 18:34:00,
2013-04-21 14:39:00,52.9,29.9,30.44,NNE,22,2.0,7.0,41,0.00,,OVC,0.00,846.00,VWS V14.00,2013-04-21 18:39:00,
2013-04-21 14:44:00,53.2,28.3,30.43,NE,43,1.0,8.0,38,0.00,,OVC,0.00,912.00,VWS V14.00,2013-04-21 18:44:00,
2013-04-21 14:50:00,53.1,30.6,30.43,SSE,153,0.0,8.0,42,0.00,,OVC,0.00,858.00,VWS V14.00,2013-04-21 18:50:00,
2013-04-21 14:55:00,53.9,30.1,30.43,SE,126,1.0,8.0,40,0.00,,OVC,0.00,918.00,VWS V14.00,2013-04-21 18:55:00,
2013-04-21 15:00:00,54.2,28.5,30.43,North,355,4.0,5.0,37,0.00,,OVC,0.00,886.00,VWS V14.00,2013-04-21 19:00:00,
2013-04-21 15:05:00,54.4,28.7,30.43,East,101,0.0,7.0,37,0.00,,OVC,0.00,896.00,VWS V14.00,2013-04-21 19:05:00,
2013-04-21 15:10:00,54.9,31.0,30.43,East,82,0.0,7.0,40,0.00,,OVC,0.00,860.00,VWS V14.00,2013-04-21 19:10:00,
2013-04-21 15:15:00,55.4,29.6,30.43,NNE,31,0.0,4.0,37,0.00,,OVC,0.00,791.00,VWS V14.00,2013-04-21 19:15:00,
2013-04-21 15:20:00,54.7,29.0,30.42,ENE,57,1.0,6.0,37,0.00,,OVC,0.00,705.00,VWS V14.00,2013-04-21 19:20:00,
2013-04-21 15:25:00,53.9,28.9,30.42,NE,46,0.0,6.0,38,0.00,,OVC,0.00,541.00,VWS V14.00,2013-04-21 19:25:00,
2013-04-21 15:30:00,53.9,29.5,30.42,SSW,195,0.0,3.0,39,0.00,,OVC,0.00,473.00,VWS V14.00,2013-04-21 19:30:00,
2013-04-21 15:35:00,53.9,30.1,30.42,ENE,69,1.0,5.0,40,0.00,,OVC,0.00,527.00,VWS V14.00,2013-04-21 19:35:00,
2013-04-21 15:41:00,53.9,28.9,30.42,ENE,62,4.0,5.0,38,0.00,,OVC,0.00,492.00,VWS V14.00,2013-04-21 19:41:00,
2013-04-21 15:46:00,53.5,28.5,30.41,SSE,149,0.0,6.0,38,0.00,,OVC,0.00,376.00,VWS V14.00,2013-04-21 19:46:00,
2013-04-21 15:51:00,53.5,28.5,30.41,East,86,0.0,6.0,38,0.00,,OVC,0.00,471.00,VWS V14.00,2013-04-21 19:51:00,
2013-04-21 15:56:00,53.7,29.4,30.41,ENE,67,1.0,6.0,39,0.00,,OVC,0.00,508.00,VWS V14.00,2013-04-21 19:56:00,
2013-04-21 16:01:00,53.8,28.8,30.41,NE,55,0.0,4.0,38,0.00,,OVC,0.00,408.00,VWS V14.00,2013-04-21 20:01:00,
2013-04-21 16:06:00,53.9,29.5,30.41,East,81,0.0,4.0,39,0.00,,OVC,0.00,287.00,VWS V14.00,2013-04-21 20:06:00,
2013-04-21 16:11:00,53.8,29.4,30.41,South,186,4.0,6.0,39,0.00,,OVC,0.00,316.00,VWS V14.00,2013-04-21 20:11:00,
2013-04-21 16:16:00,53.5,29.2,30.41,East,85,0.0,7.0,39,0.00,,OVC,0.00,265.00,VWS V14.00,2013-04-21 20:16:00,
2013-04-21 16:21:00,53.3,29.6,30.41,SE,135,1.0,7.0,40,0.00,,OVC,0.00,234.00,VWS V14.00,2013-04-21 20:21:00,
2013-04-21 16:26:00,53.2,29.5,30.41,SSE,163,1.0,8.0,40,0.00,,OVC,0.00,255.00,VWS V14.00,2013-04-21 20:26:00,
2013-04-21 16:31:00,53.1,28.8,30.41,SSE,161,0.0,8.0,39,0.00,,OVC,0.00,244.00,VWS V14.00,2013-04-21 20:31:00,
2013-04-21 16:37:00,53.0,28.7,30.41,NE,48,0.0,8.0,39,0.00,,OVC,0.00,206.00,VWS V14.00,2013-04-21 20:37:00,
2013-04-21 16:42:00,52.9,29.2,30.41,SSW,202,0.0,8.0,40,0.00,,OVC,0.00,199.00,VWS V14.00,2013-04-21 20:42:00,
2013-04-21 16:47:00,53.1,28.2,30.41,ENE,74,0.0,4.0,38,0.00,,OVC,0.00,188.00,VWS V14.00,2013-04-21 20:47:00,
2013-04-21 16:52:00,53.2,28.3,30.41,NE,40,2.0,4.0,38,0.00,,OVC,0.00,218.00,VWS V14.00,2013-04-21 20:52:00,
2013-04-21 16:57:00,53.1,28.8,30.41,NNE,19,0.0,4.0,39,0.00,,OVC,0.00,223.00,VWS V14.00,2013-04-21 20:57:00,
2013-04-21 17:02:00,53.1,27.5,30.41,East,84,1.0,4.0,37,0.00,,OVC,0.00,188.00,VWS V14.00,2013-04-21 21:02:00,
2013-04-21 17:07:00,53.0,27.4,30.41,East,86,0.0,4.0,37,0.00,,OVC,0.00,156.00,VWS V14.00,2013-04-21 21:07:00,
2013-04-21 17:12:00,52.8,27.9,30.41,East,98,0.0,5.0,38,0.00,,OVC,0.00,169.00,VWS V14.00,2013-04-21 21:12:00,
2013-04-21 17:17:00,52.7,28.5,30.41,East,95,0.0,6.0,39,0.00,,OVC,0.00,137.00,VWS V14.00,2013-04-21 21:17:00,
2013-04-21 17:22:00,52.8,27.9,30.41,East,84,1.0,6.0,38,0.00,,OVC,0.00,185.00,VWS V14.00,2013-04-21 21:22:00,
2013-04-21 17:27:00,52.7,28.5,30.41,NNE,25,0.0,6.0,39,0.00,,OVC,0.00,134.00,VWS V14.00,2013-04-21 21:27:00,
2013-04-21 17:33:00,52.8,27.3,30.42,ENE,78,2.0,4.0,37,0.00,,OVC,0.00,105.00,VWS V14.00,2013-04-21 21:33:00,
2013-04-21 17:38:00,52.8,27.9,30.42,East,80,0.0,4.0,38,0.00,,OVC,0.00,127.00,VWS V14.00,2013-04-21 21:38:00,
2013-04-21 17:43:00,52.6,28.4,30.42,ESE,108,1.0,5.0,39,0.00,,OVC,0.00,146.00,VWS V14.00,2013-04-21 21:43:00,
2013-04-21 17:48:00,52.3,27.5,30.42,NE,36,3.0,11.0,38,0.00,,OVC,0.00,142.00,VWS V14.00,2013-04-21 21:48:00,
2013-04-21 17:53:00,52.1,28.5,30.41,ENE,72,2.0,11.0,40,0.00,,OVC,0.00,134.00,VWS V14.00,2013-04-21 21:53:00,
2013-04-21 17:58:00,52.0,29.0,30.42,North,9,0.0,0.0,41,0.00,,OVC,0.00,156.00,VWS V14.00,2013-04-21 21:58:00,
2013-04-21 18:03:00,52.1,27.9,30.42,East,94,0.0,3.0,39,0.00,,OVC,0.00,146.00,VWS V14.00,2013-04-21 22:03:00,
2013-04-21 18:08:00,52.2,28.6,30.42,East,81,0.0,3.0,40,0.00,,OVC,0.00,162.00,VWS V14.00,2013-04-21 22:08:00,
2013-04-21 18:13:00,52.5,28.9,30.42,NNE,21,0.0,4.0,40,0.00,,OVC,0.00,239.00,VWS V14.00,2013-04-21 22:13:00,
2013-04-21 18:18:00,52.6,29.0,30.42,ENE,69,0.0,4.0,40,0.00,,OVC,0.00,220.00,VWS V14.00,2013-04-21 22:18:00,
2013-04-21 18:23:00,52.7,29.7,30.42,ENE,76,0.0,4.0,41,0.00,,OVC,0.00,116.00,VWS V14.00,2013-04-21 22:23:00,
2013-04-21 18:29:00,52.6,29.0,30.42,NE,55,0.0,0.0,40,0.00,,OVC,0.00,54.00,VWS V14.00,2013-04-21 22:29:00,
2013-04-21 18:34:00,52.5,29.5,30.42,NE,55,1.0,4.0,41,0.00,,OVC,0.00,51.00,VWS V14.00,2013-04-21 22:34:00,
2013-04-21 18:39:00,52.3,29.3,30.43,East,80,0.0,4.0,41,0.00,,OVC,0.00,47.00,VWS V14.00,2013-04-21 22:39:00,
2013-04-21 18:44:00,52.2,29.8,30.43,East,94,2.0,2.0,42,0.00,,OVC,0.00,37.00,VWS V14.00,2013-04-21 22:44:00,
2013-04-21 18:49:00,52.1,29.1,30.43,NE,40,0.0,2.0,41,0.00,,OVC,0.00,35.00,VWS V14.00,2013-04-21 22:49:00,
2013-04-21 18:54:00,51.8,28.9,30.43,ENE,67,0.0,3.0,41,0.00,,OVC,0.00,40.00,VWS V14.00,2013-04-21 22:54:00,
2013-04-21 18:59:00,51.7,29.9,30.43,ENE,63,0.0,1.0,43,0.00,,OVC,0.00,49.00,VWS V14.00,2013-04-21 22:59:00,
2013-04-21 19:04:00,51.5,29.2,30.43,East,86,0.0,2.0,42,0.00,,OVC,0.00,37.00,VWS V14.00,2013-04-21 23:04:00,
2013-04-21 19:09:00,51.4,30.2,30.42,SE,130,0.0,2.0,44,0.00,,OVC,0.00,37.00,VWS V14.00,2013-04-21 23:09:00,
2013-04-21 19:14:00,51.3,29.6,30.43,NE,40,0.0,1.0,43,0.00,,OVC,0.00,32.00,VWS V14.00,2013-04-21 23:14:00,
2013-04-21 19:20:00,51.3,29.6,30.43,NE,40,0.0,1.0,43,0.00,,OVC,0.00,25.00,VWS V14.00,2013-04-21 23:20:00,
2013-04-21 19:25:00,51.2,30.0,30.42,East,97,0.0,1.0,44,0.00,,OVC,0.00,19.00,VWS V14.00,2013-04-21 23:25:00,
2013-04-21 19:30:00,51.1,30.0,30.42,East,97,0.0,0.0,44,0.00,,OVC,0.00,19.00,VWS V14.00,2013-04-21 23:30:00,
2013-04-21 19:35:00,51.0,30.4,30.42,SSE,147,0.0,1.0,45,0.00,,OVC,0.00,16.00,VWS V14.00,2013-04-21 23:35:00,
2013-04-21 19:40:00,50.8,30.2,30.42,SW,219,0.0,1.0,45,0.00,,OVC,0.00,11.00,VWS V14.00,2013-04-21 23:40:00,
2013-04-21 19:45:00,50.7,30.1,30.43,SSW,211,0.0,0.0,45,0.00,,OVC,0.00,7.00,VWS V14.00,2013-04-21 23:45:00,
2013-04-21 19:50:00,50.6,30.6,30.43,SSW,211,0.0,0.0,46,0.00,,OVC,0.00,0.00,VWS V14.00,2013-04-21 23:50:00,
2013-04-21 19:55:00,50.5,31.0,30.43,SSW,211,0.0,0.0,47,0.00,,OVC,0.00,0.00,VWS V14.00,2013-04-21 23:55:00,
2013-04-21 20:01:00,50.5,31.0,30.43,SSW,211,0.0,0.0,47,0.00,,OVC,0.00,0.00,VWS V14.00,2013-04-22 00:01:00,
2013-04-21 20:06:00,50.4,31.5,30.43,SSW,211,0.0,0.0,48,0.00,,OVC,0.00,0.00,VWS V14.00,2013-04-22 00:06:00,
2013-04-21 20:11:00,50.3,31.4,30.44,SSW,211,0.0,0.0,48,0.00,,OVC,0.00,0.00,VWS V14.00,2013-04-22 00:11:00,
2013-04-21 20:16:00,50.1,31.7,30.44,SSW,211,0.0,0.0,49,0.00,,OVC,0.00,0.00,VWS V14.00,2013-04-22 00:16:00,
2013-04-21 20:21:00,50.0,32.6,30.43,SSW,211,0.0,0.0,51,0.00,,OVC,0.00,0.00,VWS V14.00,2013-04-22 00:21:00,
2013-04-21 20:26:00,49.8,32.4,30.43,SSW,211,0.0,0.0,51,0.00,,OVC,0.00,0.00,VWS V14.00,2013-04-22 00:26:00,
2013-04-21 20:31:00,49.5,32.1,30.44,SSW,211,0.0,0.0,51,0.00,,OVC,0.00,0.00,VWS V14.00,2013-04-22 00:31:00,
2013-04-21 20:36:00,49.1,32.2,30.44,SSW,211,0.0,0.0,52,0.00,,OVC,0.00,0.00,VWS V14.00,2013-04-22 00:36:00,
2013-04-21 20:41:00,48.4,33.4,30.44,SSW,211,0.0,0.0,56,0.00,,OVC,0.00,0.00,VWS V14.00,2013-04-22 00:41:00,
2013-04-21 20:47:00,47.7,33.2,30.44,SSW,211,0.0,0.0,57,0.00,,OVC,0.00,0.00,VWS V14.00,2013-04-22 00:47:00,
2013-04-21 20:52:00,47.0,33.4,30.44,SSW,211,0.0,0.0,59,0.00,,OVC,0.00,0.00,VWS V14.00,2013-04-22 00:52:00,
2013-04-21 20:57:00,46.3,33.2,30.44,SSW,211,0.0,0.0,60,0.00,,OVC,0.00,0.00,VWS V14.00,2013-04-22 00:57:00,
2013-04-21 21:02:00,45.8,33.5,30.44,SSW,211,0.0,0.0,62,0.00,,OVC,0.00,0.00,VWS V14.00,2013-04-22 01:02:00,
2013-04-21 21:07:00,45.4,33.6,30.44,SSW,211,0.0,0.0,63,0.00,,OVC,0.00,0.00,VWS V14.00,2013-04-22 01:07:00,
2013-04-21 21:12:00,45.0,33.6,30.44,SSW,211,0.0,0.0,64,0.00,,OVC,0.00,0.00,VWS V14.00,2013-04-22 01:12:00,
2013-04-21 21:17:00,44.7,33.7,30.45,SSW,211,0.0,0.0,65,0.00,,OVC,0.00,0.00,VWS V14.00,2013-04-22 01:17:00,
2013-04-21 21:22:00,44.4,33.8,30.45,SSW,211,0.0,0.0,66,0.00,,OVC,0.00,0.00,VWS V14.00,2013-04-22 01:22:00,
2013-04-21 21:27:00,44.1,34.2,30.45,SSW,211,0.0,0.0,68,0.00,,OVC,0.00,0.00,VWS V14.00,2013-04-22 01:27:00,
2013-04-21 21:32:00,43.7,34.2,30.45,SSW,211,0.0,0.0,69,0.00,,OVC,0.00,0.00,VWS V14.00,2013-04-22 01:32:00,
2013-04-21 21:38:00,43.4,33.9,30.45,SSW,211,0.0,0.0,69,0.00,,OVC,0.00,0.00,VWS V14.00,2013-04-22 01:38:00,
2013-04-21 21:43:00,43.2,34.1,30.45,SSW,211,0.0,1.0,70,0.00,,OVC,0.00,0.00,VWS V14.00,2013-04-22 01:43:00,
2013-04-21 21:48:00,43.0,34.6,30.45,SSW,211,0.0,0.0,72,0.00,,OVC,0.00,0.00,VWS V14.00,2013-04-22 01:48:00,
2013-04-21 21:53:00,42.7,34.3,30.46,SSW,211,0.0,0.0,72,0.00,,OVC,0.00,0.00,VWS V14.00,2013-04-22 01:53:00,
2013-04-21 21:58:00,43.0,34.2,30.46,SSW,194,0.0,0.0,71,0.00,,OVC,0.00,0.00,VWS V14.00,2013-04-22 01:58:00,
2013-04-21 22:03:00,43.8,34.7,30.46,SSW,212,0.0,3.0,70,0.00,,OVC,0.00,0.00,VWS V14.00,2013-04-22 02:03:00,
2013-04-21 22:08:00,44.4,34.9,30.46,SW,225,0.0,3.0,69,0.00,,OVC,0.00,0.00,VWS V14.00,2013-04-22 02:08:00,
2013-04-21 22:13:00,45.0,35.5,30.46,SSE,162,0.0,0.0,69,0.00,,OVC,0.00,0.00,VWS V14.00,2013-04-22 02:13:00,
2013-04-21 22:18:00,45.4,35.5,30.46,SSE,168,0.0,1.0,68,0.00,,OVC,0.00,0.00,VWS V14.00,2013-04-22 02:18:00,
2013-04-21 22:23:00,45.6,34.9,30.46,SE,129,0.0,1.0,66,0.00,,OVC,0.00,0.00,VWS V14.00,2013-04-22 02:23:00,
2013-04-21 22:29:00,45.8,35.1,30.46,North,360,0.0,1.0,66,0.00,,OVC,0.00,0.00,VWS V14.00,2013-04-22 02:29:00,
2013-04-21 22:34:00,45.9,35.6,30.47,East,101,0.0,2.0,67,0.00,,OVC,0.00,0.00,VWS V14.00,2013-04-22 02:34:00,
2013-04-21 22:39:00,45.8,35.5,30.46,NE,46,0.0,2.0,67,0.00,,OVC,0.00,0.00,VWS V14.00,2013-04-22 02:39:00,
2013-04-21 22:44:00,45.8,35.8,30.47,NE,46,0.0,0.0,68,0.00,,OVC,0.00,0.00,VWS V14.00,2013-04-22 02:44:00,
2013-04-21 22:49:00,45.6,34.9,30.47,NE,46,0.0,1.0,66,0.00,,OVC,0.00,0.00,VWS V14.00,2013-04-22 02:49:00,
2013-04-21 22:54:00,45.6,35.3,30.47,NE,46,0.0,1.0,67,0.00,,OVC,0.00,0.00,VWS V14.00,2013-04-22 02:54:00,
2013-04-21 22:59:00,45.5,35.2,30.47,NW,319,0.0,0.0,67,0.00,,OVC,0.00,0.00,VWS V14.00,2013-04-22 02:59:00,
2013-04-21 23:04:00,45.5,35.2,30.47,West,281,0.0,1.0,67,0.00,,OVC,0.00,0.00,VWS V14.00,2013-04-22 03:04:00,
2013-04-21 23:09:00,45.4,35.1,30.47,West,281,0.0,1.0,67,0.00,,OVC,0.00,0.00,VWS V14.00,2013-04-22 03:09:00,
2013-04-21 23:14:00,45.2,35.3,30.47,West,281,0.0,0.0,68,0.00,,OVC,0.00,0.00,VWS V14.00,2013-04-22 03:14:00,
2013-04-21 23:19:00,45.1,35.2,30.47,West,279,0.0,1.0,68,0.00,,OVC,0.00,0.00,VWS V14.00,2013-04-22 03:19:00,
2013-04-21 23:24:00,45.0,35.1,30.47,West,279,0.0,1.0,68,0.00,,OVC,0.00,0.00,VWS V14.00,2013-04-22 03:24:00,
2013-04-21 23:30:00,44.9,35.4,30.47,SW,234,0.0,0.0,69,0.00,,OVC,0.00,0.00,VWS V14.00,2013-04-22 03:30:00,
2013-04-21 23:35:00,44.8,35.6,30.47,SSW,201,0.0,1.0,70,0.00,,OVC,0.00,0.00,VWS V14.00,2013-04-22 03:35:00,
2013-04-21 23:40:00,44.8,35.6,30.47,SSW,200,0.0,1.0,70,0.00,,OVC,0.00,0.00,VWS V14.00,2013-04-22 03:40:00,
2013-04-21 23:46:00,44.7,35.9,30.47,SSE,153,1.0,1.0,71,0.00,,OVC,0.00,0.00,VWS V14.00,2013-04-22 03:46:00,
2013-04-21 23:51:00,44.7,35.9,30.48,SSE,153,0.0,1.0,71,0.00,,OVC,0.00,0.00,VWS V14.00,2013-04-22 03:51:00,
2013-04-21 23:56:00,44.6,36.2,30.47,South,178,0.0,1.0,72,0.00,,OVC,0.00,0.00,VWS V14.00,2013-04-22 03:56:00,